sensor_id;sensor_type;location;lat;lon;timestamp;P1;durP1;ratioP1;P2;durP2;ratioP2
60716;SDS011;46566;52.700;6.192;2023-12-07T00:00:43;0.20;;;0.20;;
60716;SDS011;46566;52.700;6.192;2023-12-07T00:03:09;0.30;;;0.30;;
60716;SDS011;46566;52.700;6.192;2023-12-07T00:05:35;1.35;;;1.35;;
60716;SDS011;46566;52.700;6.192;2023-12-07T00:08:02;1.25;;;1.08;;
60716;SDS011;46566;52.700;6.192;2023-12-07T00:10:28;0.30;;;0.30;;
60716;SDS011;46566;52.700;6.192;2023-12-07T00:12:54;6.68;;;6.38;;
60716;SDS011;46566;52.700;6.192;2023-12-07T00:15:20;2.20;;;1.38;;
60716;SDS011;46566;52.700;6.192;2023-12-07T00:17:47;5.93;;;3.63;;
60716;SDS011;46566;52.700;6.192;2023-12-07T00:20:13;6.13;;;1.40;;
60716;SDS011;46566;52.700;6.192;2023-12-07T00:22:39;7.43;;;2.63;;
60716;SDS011;46566;52.700;6.192;2023-12-07T00:25:06;0.73;;;0.73;;
60716;SDS011;46566;52.700;6.192;2023-12-07T00:27:33;0.50;;;0.50;;
60716;SDS011;46566;52.700;6.192;2023-12-07T00:29:59;2.15;;;1.13;;
60716;SDS011;46566;52.700;6.192;2023-12-07T00:32:25;0.82;;;0.80;;
60716;SDS011;46566;52.700;6.192;2023-12-07T00:34:52;0.57;;;0.57;;
60716;SDS011;46566;52.700;6.192;2023-12-07T00:37:18;3.38;;;1.83;;
60716;SDS011;46566;52.700;6.192;2023-12-07T00:39:45;11.25;;;3.55;;
60716;SDS011;46566;52.700;6.192;2023-12-07T00:42:11;0.40;;;0.40;;
60716;SDS011;46566;52.700;6.192;2023-12-07T00:44:41;0.30;;;0.30;;
60716;SDS011;46566;52.700;6.192;2023-12-07T00:47:07;1.02;;;1.02;;
60716;SDS011;46566;52.700;6.192;2023-12-07T00:49:37;6.15;;;3.17;;
60716;SDS011;46566;52.700;6.192;2023-12-07T00:52:03;1.00;;;0.95;;
60716;SDS011;46566;52.700;6.192;2023-12-07T00:54:29;0.50;;;0.47;;
60716;SDS011;46566;52.700;6.192;2023-12-07T00:56:56;0.40;;;0.40;;
60716;SDS011;46566;52.700;6.192;2023-12-07T00:59:23;0.40;;;0.40;;
60716;SDS011;46566;52.700;6.192;2023-12-07T01:01:50;0.35;;;0.35;;
60716;SDS011;46566;52.700;6.192;2023-12-07T01:04:16;0.40;;;0.40;;
60716;SDS011;46566;52.700;6.192;2023-12-07T01:06:43;2.90;;;1.13;;
60716;SDS011;46566;52.700;6.192;2023-12-07T01:09:09;0.57;;;0.57;;
60716;SDS011;46566;52.700;6.192;2023-12-07T01:11:39;0.30;;;0.30;;
60716;SDS011;46566;52.700;6.192;2023-12-07T01:14:05;3.88;;;3.60;;
60716;SDS011;46566;52.700;6.192;2023-12-07T01:16:31;0.50;;;0.50;;
60716;SDS011;46566;52.700;6.192;2023-12-07T01:18:58;15.15;;;3.35;;
60716;SDS011;46566;52.700;6.192;2023-12-07T01:21:24;0.40;;;0.40;;
60716;SDS011;46566;52.700;6.192;2023-12-07T01:23:50;0.40;;;0.40;;
60716;SDS011;46566;52.700;6.192;2023-12-07T01:26:16;0.40;;;0.40;;
60716;SDS011;46566;52.700;6.192;2023-12-07T01:28:43;1.05;;;1.05;;
60716;SDS011;46566;52.700;6.192;2023-12-07T01:31:09;0.47;;;0.47;;
60716;SDS011;46566;52.700;6.192;2023-12-07T01:33:35;0.22;;;0.22;;
60716;SDS011;46566;52.700;6.192;2023-12-07T01:36:01;6.20;;;1.75;;
60716;SDS011;46566;52.700;6.192;2023-12-07T01:38:28;0.40;;;0.40;;
60716;SDS011;46566;52.700;6.192;2023-12-07T01:40:54;0.45;;;0.45;;
60716;SDS011;46566;52.700;6.192;2023-12-07T01:43:22;5.68;;;5.03;;
60716;SDS011;46566;52.700;6.192;2023-12-07T01:45:48;0.73;;;0.73;;
60716;SDS011;46566;52.700;6.192;2023-12-07T01:50:44;1.25;;;1.25;;
60716;SDS011;46566;52.700;6.192;2023-12-07T01:53:11;0.98;;;0.98;;
60716;SDS011;46566;52.700;6.192;2023-12-07T01:55:38;0.40;;;0.40;;
60716;SDS011;46566;52.700;6.192;2023-12-07T01:58:05;0.60;;;0.60;;
60716;SDS011;46566;52.700;6.192;2023-12-07T02:00:32;1.30;;;1.20;;
60716;SDS011;46566;52.700;6.192;2023-12-07T02:02:59;0.60;;;0.60;;
60716;SDS011;46566;52.700;6.192;2023-12-07T02:05:26;0.40;;;0.40;;
60716;SDS011;46566;52.700;6.192;2023-12-07T02:07:52;0.30;;;0.30;;
60716;SDS011;46566;52.700;6.192;2023-12-07T02:10:19;1.33;;;1.33;;
60716;SDS011;46566;52.700;6.192;2023-12-07T02:12:46;0.30;;;0.30;;
60716;SDS011;46566;52.700;6.192;2023-12-07T02:15:13;0.30;;;0.30;;
60716;SDS011;46566;52.700;6.192;2023-12-07T02:20:11;3.03;;;2.78;;
60716;SDS011;46566;52.700;6.192;2023-12-07T02:23:00;3.60;;;1.77;;
60716;SDS011;46566;52.700;6.192;2023-12-07T02:25:32;0.30;;;0.30;;
60716;SDS011;46566;52.700;6.192;2023-12-07T02:28:01;2.70;;;1.10;;
60716;SDS011;46566;52.700;6.192;2023-12-07T02:30:27;5.28;;;3.70;;
60716;SDS011;46566;52.700;6.192;2023-12-07T02:32:54;1.38;;;1.38;;
60716;SDS011;46566;52.700;6.192;2023-12-07T02:35:20;0.30;;;0.30;;
60716;SDS011;46566;52.700;6.192;2023-12-07T02:37:48;0.65;;;0.65;;
60716;SDS011;46566;52.700;6.192;2023-12-07T02:40:18;0.30;;;0.30;;
60716;SDS011;46566;52.700;6.192;2023-12-07T02:42:45;1.35;;;0.65;;
60716;SDS011;46566;52.700;6.192;2023-12-07T02:45:12;2.20;;;2.05;;
60716;SDS011;46566;52.700;6.192;2023-12-07T02:47:38;1.17;;;0.70;;
60716;SDS011;46566;52.700;6.192;2023-12-07T02:50:05;0.32;;;0.32;;
60716;SDS011;46566;52.700;6.192;2023-12-07T02:52:32;0.88;;;0.88;;
60716;SDS011;46566;52.700;6.192;2023-12-07T02:54:58;1.88;;;1.77;;
60716;SDS011;46566;52.700;6.192;2023-12-07T02:57:24;0.30;;;0.30;;
60716;SDS011;46566;52.700;6.192;2023-12-07T02:59:51;0.30;;;0.30;;
60716;SDS011;46566;52.700;6.192;2023-12-07T03:02:17;16.38;;;15.20;;
60716;SDS011;46566;52.700;6.192;2023-12-07T03:04:44;0.40;;;0.40;;
60716;SDS011;46566;52.700;6.192;2023-12-07T03:07:10;0.30;;;0.30;;
60716;SDS011;46566;52.700;6.192;2023-12-07T03:09:36;0.60;;;0.60;;
60716;SDS011;46566;52.700;6.192;2023-12-07T03:12:02;0.80;;;0.75;;
60716;SDS011;46566;52.700;6.192;2023-12-07T03:14:29;4.30;;;1.88;;
60716;SDS011;46566;52.700;6.192;2023-12-07T03:16:55;0.50;;;0.50;;
60716;SDS011;46566;52.700;6.192;2023-12-07T03:19:21;0.68;;;0.68;;
60716;SDS011;46566;52.700;6.192;2023-12-07T03:21:47;0.30;;;0.30;;
60716;SDS011;46566;52.700;6.192;2023-12-07T03:24:13;0.30;;;0.30;;
60716;SDS011;46566;52.700;6.192;2023-12-07T03:26:40;0.65;;;0.65;;
60716;SDS011;46566;52.700;6.192;2023-12-07T03:29:06;0.30;;;0.30;;
60716;SDS011;46566;52.700;6.192;2023-12-07T03:31:33;0.90;;;0.90;;
60716;SDS011;46566;52.700;6.192;2023-12-07T03:33:59;6.30;;;1.00;;
60716;SDS011;46566;52.700;6.192;2023-12-07T03:36:26;1.25;;;1.25;;
60716;SDS011;46566;52.700;6.192;2023-12-07T03:38:53;0.40;;;0.40;;
60716;SDS011;46566;52.700;6.192;2023-12-07T03:41:19;0.50;;;0.50;;
60716;SDS011;46566;52.700;6.192;2023-12-07T03:43:45;21.92;;;20.15;;
60716;SDS011;46566;52.700;6.192;2023-12-07T03:46:11;0.30;;;0.30;;
60716;SDS011;46566;52.700;6.192;2023-12-07T03:48:38;2.35;;;1.88;;
60716;SDS011;46566;52.700;6.192;2023-12-07T03:51:04;0.38;;;0.38;;
60716;SDS011;46566;52.700;6.192;2023-12-07T03:53:31;0.40;;;0.40;;
60716;SDS011;46566;52.700;6.192;2023-12-07T03:55:57;0.80;;;0.80;;
60716;SDS011;46566;52.700;6.192;2023-12-07T03:58:23;3.60;;;3.45;;
60716;SDS011;46566;52.700;6.192;2023-12-07T04:00:49;3.03;;;2.83;;
60716;SDS011;46566;52.700;6.192;2023-12-07T04:03:16;0.30;;;0.30;;
60716;SDS011;46566;52.700;6.192;2023-12-07T04:05:42;0.40;;;0.40;;
60716;SDS011;46566;52.700;6.192;2023-12-07T04:08:08;0.30;;;0.30;;
60716;SDS011;46566;52.700;6.192;2023-12-07T04:10:35;5.00;;;4.40;;
60716;SDS011;46566;52.700;6.192;2023-12-07T04:13:01;27.65;;;25.38;;
60716;SDS011;46566;52.700;6.192;2023-12-07T04:15:28;3.22;;;2.97;;
60716;SDS011;46566;52.700;6.192;2023-12-07T04:17:54;5.63;;;3.22;;
60716;SDS011;46566;52.700;6.192;2023-12-07T04:20:20;4.45;;;3.75;;
60716;SDS011;46566;52.700;6.192;2023-12-07T04:22:46;3.20;;;2.15;;
60716;SDS011;46566;52.700;6.192;2023-12-07T04:25:13;8.90;;;3.38;;
60716;SDS011;46566;52.700;6.192;2023-12-07T04:27:39;2.70;;;2.50;;
60716;SDS011;46566;52.700;6.192;2023-12-07T04:30:05;1.92;;;1.60;;
60716;SDS011;46566;52.700;6.192;2023-12-07T04:32:32;4.15;;;2.72;;
60716;SDS011;46566;52.700;6.192;2023-12-07T04:34:58;3.38;;;2.03;;
60716;SDS011;46566;52.700;6.192;2023-12-07T04:37:24;1.30;;;1.23;;
60716;SDS011;46566;52.700;6.192;2023-12-07T04:39:51;0.25;;;0.25;;
60716;SDS011;46566;52.700;6.192;2023-12-07T04:42:17;0.40;;;0.40;;
60716;SDS011;46566;52.700;6.192;2023-12-07T04:44:43;0.68;;;0.68;;
60716;SDS011;46566;52.700;6.192;2023-12-07T04:47:09;4.03;;;3.83;;
60716;SDS011;46566;52.700;6.192;2023-12-07T04:49:35;0.55;;;0.55;;
60716;SDS011;46566;52.700;6.192;2023-12-07T04:52:02;0.95;;;0.95;;
60716;SDS011;46566;52.700;6.192;2023-12-07T04:54:28;0.50;;;0.50;;
60716;SDS011;46566;52.700;6.192;2023-12-07T04:56:54;0.40;;;0.40;;
60716;SDS011;46566;52.700;6.192;2023-12-07T04:59:20;0.38;;;0.38;;
60716;SDS011;46566;52.700;6.192;2023-12-07T05:01:50;1.27;;;1.27;;
60716;SDS011;46566;52.700;6.192;2023-12-07T05:04:16;6.13;;;1.02;;
60716;SDS011;46566;52.700;6.192;2023-12-07T05:06:42;3.42;;;2.80;;
60716;SDS011;46566;52.700;6.192;2023-12-07T05:09:09;0.90;;;0.90;;
60716;SDS011;46566;52.700;6.192;2023-12-07T05:11:36;4.72;;;3.28;;
60716;SDS011;46566;52.700;6.192;2023-12-07T05:14:02;2.30;;;2.00;;
60716;SDS011;46566;52.700;6.192;2023-12-07T05:16:29;3.90;;;1.75;;
60716;SDS011;46566;52.700;6.192;2023-12-07T05:18:55;0.73;;;0.73;;
60716;SDS011;46566;52.700;6.192;2023-12-07T05:21:21;0.30;;;0.30;;
60716;SDS011;46566;52.700;6.192;2023-12-07T05:23:47;0.50;;;0.50;;
60716;SDS011;46566;52.700;6.192;2023-12-07T05:26:14;1.02;;;1.02;;
60716;SDS011;46566;52.700;6.192;2023-12-07T05:28:40;9.05;;;6.45;;
60716;SDS011;46566;52.700;6.192;2023-12-07T05:31:06;3.55;;;2.78;;
60716;SDS011;46566;52.700;6.192;2023-12-07T05:33:32;6.28;;;4.13;;
60716;SDS011;46566;52.700;6.192;2023-12-07T05:35:59;1.33;;;1.23;;
60716;SDS011;46566;52.700;6.192;2023-12-07T05:38:25;0.55;;;0.55;;
60716;SDS011;46566;52.700;6.192;2023-12-07T05:40:51;1.98;;;1.88;;
60716;SDS011;46566;52.700;6.192;2023-12-07T05:43:18;4.68;;;3.25;;
60716;SDS011;46566;52.700;6.192;2023-12-07T05:45:44;2.90;;;1.95;;
60716;SDS011;46566;52.700;6.192;2023-12-07T05:48:10;2.55;;;0.90;;
60716;SDS011;46566;52.700;6.192;2023-12-07T05:50:36;0.52;;;0.47;;
60716;SDS011;46566;52.700;6.192;2023-12-07T05:53:05;0.95;;;0.95;;
60716;SDS011;46566;52.700;6.192;2023-12-07T05:55:31;1.15;;;1.15;;
60716;SDS011;46566;52.700;6.192;2023-12-07T05:57:58;0.60;;;0.60;;
60716;SDS011;46566;52.700;6.192;2023-12-07T06:00:24;4.00;;;1.23;;
60716;SDS011;46566;52.700;6.192;2023-12-07T06:02:50;1.25;;;1.15;;
60716;SDS011;46566;52.700;6.192;2023-12-07T06:05:17;0.77;;;0.77;;
60716;SDS011;46566;52.700;6.192;2023-12-07T06:07:43;0.30;;;0.30;;
60716;SDS011;46566;52.700;6.192;2023-12-07T06:10:09;0.40;;;0.40;;
60716;SDS011;46566;52.700;6.192;2023-12-07T06:12:36;0.30;;;0.30;;
60716;SDS011;46566;52.700;6.192;2023-12-07T06:15:02;0.30;;;0.30;;
60716;SDS011;46566;52.700;6.192;2023-12-07T06:17:29;0.30;;;0.30;;
60716;SDS011;46566;52.700;6.192;2023-12-07T06:19:55;1.45;;;1.45;;
60716;SDS011;46566;52.700;6.192;2023-12-07T06:22:21;0.30;;;0.30;;
60716;SDS011;46566;52.700;6.192;2023-12-07T06:24:47;0.38;;;0.38;;
60716;SDS011;46566;52.700;6.192;2023-12-07T06:27:13;0.55;;;0.55;;
60716;SDS011;46566;52.700;6.192;2023-12-07T06:29:40;0.40;;;0.40;;
60716;SDS011;46566;52.700;6.192;2023-12-07T06:32:06;0.32;;;0.32;;
60716;SDS011;46566;52.700;6.192;2023-12-07T06:34:32;0.73;;;0.73;;
60716;SDS011;46566;52.700;6.192;2023-12-07T06:36:58;0.30;;;0.30;;
60716;SDS011;46566;52.700;6.192;2023-12-07T06:39:24;0.82;;;0.80;;
60716;SDS011;46566;52.700;6.192;2023-12-07T06:41:51;2.72;;;2.00;;
60716;SDS011;46566;52.700;6.192;2023-12-07T06:44:18;0.30;;;0.30;;
60716;SDS011;46566;52.700;6.192;2023-12-07T06:46:45;0.40;;;0.40;;
60716;SDS011;46566;52.700;6.192;2023-12-07T06:49:11;0.82;;;0.82;;
60716;SDS011;46566;52.700;6.192;2023-12-07T06:51:38;0.52;;;0.52;;
60716;SDS011;46566;52.700;6.192;2023-12-07T06:54:04;2.75;;;2.22;;
60716;SDS011;46566;52.700;6.192;2023-12-07T06:56:30;1.33;;;1.23;;
60716;SDS011;46566;52.700;6.192;2023-12-07T06:58:57;1.25;;;1.23;;
60716;SDS011;46566;52.700;6.192;2023-12-07T07:01:23;3.30;;;2.95;;
60716;SDS011;46566;52.700;6.192;2023-12-07T07:03:49;0.50;;;0.43;;
60716;SDS011;46566;52.700;6.192;2023-12-07T07:06:16;1.83;;;1.48;;
60716;SDS011;46566;52.700;6.192;2023-12-07T07:08:42;4.07;;;2.20;;
60716;SDS011;46566;52.700;6.192;2023-12-07T07:11:12;1.83;;;1.23;;
60716;SDS011;46566;52.700;6.192;2023-12-07T07:13:41;3.83;;;3.05;;
60716;SDS011;46566;52.700;6.192;2023-12-07T07:16:08;1.90;;;1.65;;
60716;SDS011;46566;52.700;6.192;2023-12-07T07:18:36;4.88;;;4.03;;
60716;SDS011;46566;52.700;6.192;2023-12-07T07:21:03;5.95;;;4.50;;
60716;SDS011;46566;52.700;6.192;2023-12-07T07:23:29;3.67;;;1.75;;
60716;SDS011;46566;52.700;6.192;2023-12-07T07:25:57;0.55;;;0.55;;
60716;SDS011;46566;52.700;6.192;2023-12-07T07:28:24;1.40;;;1.40;;
60716;SDS011;46566;52.700;6.192;2023-12-07T07:30:50;6.65;;;6.00;;
60716;SDS011;46566;52.700;6.192;2023-12-07T07:33:16;4.90;;;1.83;;
60716;SDS011;46566;52.700;6.192;2023-12-07T07:35:43;5.53;;;3.05;;
60716;SDS011;46566;52.700;6.192;2023-12-07T07:38:09;5.85;;;3.35;;
60716;SDS011;46566;52.700;6.192;2023-12-07T07:40:35;3.58;;;2.35;;
60716;SDS011;46566;52.700;6.192;2023-12-07T07:43:02;0.93;;;0.93;;
60716;SDS011;46566;52.700;6.192;2023-12-07T07:45:28;6.07;;;4.32;;
60716;SDS011;46566;52.700;6.192;2023-12-07T07:47:54;23.35;;;10.20;;
60716;SDS011;46566;52.700;6.192;2023-12-07T07:50:21;9.02;;;6.30;;
60716;SDS011;46566;52.700;6.192;2023-12-07T07:52:47;7.47;;;3.88;;
60716;SDS011;46566;52.700;6.192;2023-12-07T07:55:14;10.90;;;4.90;;
60716;SDS011;46566;52.700;6.192;2023-12-07T07:57:40;10.23;;;5.63;;
60716;SDS011;46566;52.700;6.192;2023-12-07T08:00:08;5.68;;;5.00;;
60716;SDS011;46566;52.700;6.192;2023-12-07T08:02:34;16.48;;;8.90;;
60716;SDS011;46566;52.700;6.192;2023-12-07T08:05:03;7.70;;;4.18;;
60716;SDS011;46566;52.700;6.192;2023-12-07T08:07:30;6.50;;;2.53;;
60716;SDS011;46566;52.700;6.192;2023-12-07T08:09:56;7.32;;;3.72;;
60716;SDS011;46566;52.700;6.192;2023-12-07T08:12:22;2.15;;;2.05;;
60716;SDS011;46566;52.700;6.192;2023-12-07T08:14:49;10.75;;;8.02;;
60716;SDS011;46566;52.700;6.192;2023-12-07T08:17:15;6.30;;;5.20;;
60716;SDS011;46566;52.700;6.192;2023-12-07T08:19:41;9.02;;;5.32;;
60716;SDS011;46566;52.700;6.192;2023-12-07T08:22:08;12.52;;;6.45;;
60716;SDS011;46566;52.700;6.192;2023-12-07T08:24:34;13.75;;;8.15;;
60716;SDS011;46566;52.700;6.192;2023-12-07T08:27:02;8.73;;;5.72;;
60716;SDS011;46566;52.700;6.192;2023-12-07T08:29:28;7.60;;;5.15;;
60716;SDS011;46566;52.700;6.192;2023-12-07T08:31:55;11.07;;;5.65;;
60716;SDS011;46566;52.700;6.192;2023-12-07T08:34:21;30.25;;;14.43;;
60716;SDS011;46566;52.700;6.192;2023-12-07T08:37:02;22.92;;;11.73;;
60716;SDS011;46566;52.700;6.192;2023-12-07T08:39:29;31.67;;;13.10;;
60716;SDS011;46566;52.700;6.192;2023-12-07T08:41:55;30.20;;;13.75;;
60716;SDS011;46566;52.700;6.192;2023-12-07T08:44:21;32.95;;;17.20;;
60716;SDS011;46566;52.700;6.192;2023-12-07T08:46:48;25.05;;;10.88;;
60716;SDS011;46566;52.700;6.192;2023-12-07T08:52:05;8.63;;;4.75;;
60716;SDS011;46566;52.700;6.192;2023-12-07T08:54:31;22.50;;;11.32;;
60716;SDS011;46566;52.700;6.192;2023-12-07T08:56:59;56.38;;;10.32;;
60716;SDS011;46566;52.700;6.192;2023-12-07T08:59:37;4.78;;;4.20;;
60716;SDS011;46566;52.700;6.192;2023-12-07T09:02:03;2.83;;;2.72;;
60716;SDS011;46566;52.700;6.192;2023-12-07T09:04:29;3.55;;;3.25;;
60716;SDS011;46566;52.700;6.192;2023-12-07T09:06:56;69.57;;;12.52;;
60716;SDS011;46566;52.700;6.192;2023-12-07T09:09:22;116.93;;;21.23;;
60716;SDS011;46566;52.700;6.192;2023-12-07T09:14:41;129.75;;;15.90;;
60716;SDS011;46566;52.700;6.192;2023-12-07T09:17:07;52.38;;;15.05;;
60716;SDS011;46566;52.700;6.192;2023-12-07T09:22:26;12.15;;;5.70;;
60716;SDS011;46566;52.700;6.192;2023-12-07T09:24:52;5.85;;;5.30;;
60716;SDS011;46566;52.700;6.192;2023-12-07T09:27:18;53.28;;;9.40;;
60716;SDS011;46566;52.700;6.192;2023-12-07T09:30:00;29.30;;;7.10;;
60716;SDS011;46566;52.700;6.192;2023-12-07T09:32:27;112.13;;;14.15;;
60716;SDS011;46566;52.700;6.192;2023-12-07T09:34:53;133.70;;;13.27;;
60716;SDS011;46566;52.700;6.192;2023-12-07T09:37:19;25.13;;;6.40;;
60716;SDS011;46566;52.700;6.192;2023-12-07T09:39:46;61.85;;;10.07;;
60716;SDS011;46566;52.700;6.192;2023-12-07T09:45:05;145.00;;;16.20;;
60716;SDS011;46566;52.700;6.192;2023-12-07T09:47:31;165.77;;;17.65;;
60716;SDS011;46566;52.700;6.192;2023-12-07T09:52:56;35.60;;;7.35;;
60716;SDS011;46566;52.700;6.192;2023-12-07T09:55:23;150.50;;;17.33;;
60716;SDS011;46566;52.700;6.192;2023-12-07T09:57:50;176.23;;;15.93;;
60716;SDS011;46566;52.700;6.192;2023-12-07T10:00:35;84.18;;;12.90;;
60716;SDS011;46566;52.700;6.192;2023-12-07T10:03:01;159.93;;;20.58;;
60716;SDS011;46566;52.700;6.192;2023-12-07T10:05:28;92.60;;;13.95;;
60716;SDS011;46566;52.700;6.192;2023-12-07T10:07:54;46.35;;;8.80;;
60716;SDS011;46566;52.700;6.192;2023-12-07T10:10:33;42.15;;;8.45;;
60716;SDS011;46566;52.700;6.192;2023-12-07T10:12:59;71.28;;;14.50;;
60716;SDS011;46566;52.700;6.192;2023-12-07T10:15:26;77.55;;;17.58;;
60716;SDS011;46566;52.700;6.192;2023-12-07T10:20:20;18.88;;;4.78;;
60716;SDS011;46566;52.700;6.192;2023-12-07T10:23:06;18.00;;;3.50;;
60716;SDS011;46566;52.700;6.192;2023-12-07T10:25:35;10.20;;;5.80;;
60716;SDS011;46566;52.700;6.192;2023-12-07T10:28:01;27.25;;;9.52;;
60716;SDS011;46566;52.700;6.192;2023-12-07T10:33:25;68.55;;;13.93;;
60716;SDS011;46566;52.700;6.192;2023-12-07T10:35:52;177.50;;;25.48;;
60716;SDS011;46566;52.700;6.192;2023-12-07T10:38:19;109.63;;;18.55;;
60716;SDS011;46566;52.700;6.192;2023-12-07T10:41:03;62.05;;;12.38;;
60716;SDS011;46566;52.700;6.192;2023-12-07T10:43:31;92.32;;;14.18;;
60716;SDS011;46566;52.700;6.192;2023-12-07T10:45:58;60.35;;;11.90;;
60716;SDS011;46566;52.700;6.192;2023-12-07T10:48:24;141.05;;;24.23;;
60716;SDS011;46566;52.700;6.192;2023-12-07T10:51:07;210.20;;;24.80;;
60716;SDS011;46566;52.700;6.192;2023-12-07T10:53:37;2.40;;;2.10;;
60716;SDS011;46566;52.700;6.192;2023-12-07T10:56:09;121.85;;;18.05;;
60716;SDS011;46566;52.700;6.192;2023-12-07T10:58:36;206.70;;;28.85;;
60716;SDS011;46566;52.700;6.192;2023-12-07T11:01:15;43.20;;;7.63;;
60716;SDS011;46566;52.700;6.192;2023-12-07T11:03:43;235.40;;;29.53;;
60716;SDS011;46566;52.700;6.192;2023-12-07T11:06:09;17.65;;;8.30;;
60716;SDS011;46566;52.700;6.192;2023-12-07T11:08:41;13.38;;;6.20;;
60716;SDS011;46566;52.700;6.192;2023-12-07T11:14:02;145.25;;;16.67;;
60716;SDS011;46566;52.700;6.192;2023-12-07T11:16:35;69.88;;;14.75;;
60716;SDS011;46566;52.700;6.192;2023-12-07T11:21:47;52.85;;;9.68;;
60716;SDS011;46566;52.700;6.192;2023-12-07T11:24:16;104.65;;;15.02;;
60716;SDS011;46566;52.700;6.192;2023-12-07T11:26:42;51.58;;;8.73;;
60716;SDS011;46566;52.700;6.192;2023-12-07T11:29:25;76.45;;;7.63;;
60716;SDS011;46566;52.700;6.192;2023-12-07T11:31:52;34.72;;;9.27;;
60716;SDS011;46566;52.700;6.192;2023-12-07T11:34:37;2.17;;;2.08;;
60716;SDS011;46566;52.700;6.192;2023-12-07T11:39:55;16.25;;;7.05;;
60716;SDS011;46566;52.700;6.192;2023-12-07T11:42:22;37.80;;;13.52;;
60716;SDS011;46566;52.700;6.192;2023-12-07T11:44:48;8.90;;;6.93;;
60716;SDS011;46566;52.700;6.192;2023-12-07T11:50:13;73.20;;;18.23;;
60716;SDS011;46566;52.700;6.192;2023-12-07T11:52:39;44.22;;;11.20;;
60716;SDS011;46566;52.700;6.192;2023-12-07T11:57:57;34.72;;;12.98;;
60716;SDS011;46566;52.700;6.192;2023-12-07T12:00:24;14.80;;;8.40;;
60716;SDS011;46566;52.700;6.192;2023-12-07T12:02:51;111.82;;;22.45;;
60716;SDS011;46566;52.700;6.192;2023-12-07T12:05:33;63.42;;;14.88;;
60716;SDS011;46566;52.700;6.192;2023-12-07T12:07:59;55.88;;;15.10;;
60716;SDS011;46566;52.700;6.192;2023-12-07T12:10:25;10.23;;;7.10;;
60716;SDS011;46566;52.700;6.192;2023-12-07T12:12:53;128.45;;;22.52;;
60716;SDS011;46566;52.700;6.192;2023-12-07T12:18:11;89.22;;;20.27;;
60716;SDS011;46566;52.700;6.192;2023-12-07T12:20:39;75.75;;;13.95;;
60716;SDS011;46566;52.700;6.192;2023-12-07T12:23:06;26.33;;;8.73;;
60716;SDS011;46566;52.700;6.192;2023-12-07T12:25:50;17.77;;;5.75;;
60716;SDS011;46566;52.700;6.192;2023-12-07T12:28:17;133.73;;;24.27;;
60716;SDS011;46566;52.700;6.192;2023-12-07T12:30:47;40.55;;;12.27;;
60716;SDS011;46566;52.700;6.192;2023-12-07T12:33:16;49.60;;;10.55;;
60716;SDS011;46566;52.700;6.192;2023-12-07T12:36:26;27.23;;;11.73;;
60716;SDS011;46566;52.700;6.192;2023-12-07T12:38:53;33.08;;;12.40;;
60716;SDS011;46566;52.700;6.192;2023-12-07T12:41:44;51.17;;;15.30;;
60716;SDS011;46566;52.700;6.192;2023-12-07T12:44:11;40.38;;;16.35;;
60716;SDS011;46566;52.700;6.192;2023-12-07T12:46:37;15.80;;;8.43;;
60716;SDS011;46566;52.700;6.192;2023-12-07T12:49:03;8.82;;;3.97;;
60716;SDS011;46566;52.700;6.192;2023-12-07T12:51:54;48.15;;;19.08;;
60716;SDS011;46566;52.700;6.192;2023-12-07T12:54:21;26.70;;;9.85;;
60716;SDS011;46566;52.700;6.192;2023-12-07T12:56:47;50.03;;;17.27;;
60716;SDS011;46566;52.700;6.192;2023-12-07T13:02:02;51.55;;;17.65;;
60716;SDS011;46566;52.700;6.192;2023-12-07T13:04:34;33.08;;;13.90;;
60716;SDS011;46566;52.700;6.192;2023-12-07T13:07:00;47.22;;;15.77;;
60716;SDS011;46566;52.700;6.192;2023-12-07T13:12:18;34.90;;;13.77;;
60716;SDS011;46566;52.700;6.192;2023-12-07T13:14:45;55.63;;;11.32;;
60716;SDS011;46566;52.700;6.192;2023-12-07T13:17:11;38.92;;;15.73;;
60716;SDS011;46566;52.700;6.192;2023-12-07T13:22:30;24.33;;;10.65;;
60716;SDS011;46566;52.700;6.192;2023-12-07T13:24:56;31.42;;;10.60;;
60716;SDS011;46566;52.700;6.192;2023-12-07T13:30:14;33.60;;;13.15;;
60716;SDS011;46566;52.700;6.192;2023-12-07T13:32:40;13.23;;;6.80;;
60716;SDS011;46566;52.700;6.192;2023-12-07T13:35:06;41.45;;;16.38;;
60716;SDS011;46566;52.700;6.192;2023-12-07T13:40:21;21.77;;;8.50;;
60716;SDS011;46566;52.700;6.192;2023-12-07T13:42:47;12.68;;;7.05;;
60716;SDS011;46566;52.700;6.192;2023-12-07T13:45:13;9.10;;;5.03;;
60716;SDS011;46566;52.700;6.192;2023-12-07T13:50:28;31.40;;;11.60;;
60716;SDS011;46566;52.700;6.192;2023-12-07T13:52:54;39.40;;;13.85;;
60716;SDS011;46566;52.700;6.192;2023-12-07T13:55:20;30.38;;;12.10;;
60716;SDS011;46566;52.700;6.192;2023-12-07T14:00:39;7.55;;;3.28;;
60716;SDS011;46566;52.700;6.192;2023-12-07T14:03:10;36.50;;;15.15;;
60716;SDS011;46566;52.700;6.192;2023-12-07T14:05:37;58.92;;;20.27;;
60716;SDS011;46566;52.700;6.192;2023-12-07T14:08:30;23.90;;;10.90;;
60716;SDS011;46566;52.700;6.192;2023-12-07T14:10:56;22.55;;;11.73;;
60716;SDS011;46566;52.700;6.192;2023-12-07T14:13:23;38.88;;;15.38;;
60716;SDS011;46566;52.700;6.192;2023-12-07T14:18:42;8.30;;;7.50;;
60716;SDS011;46566;52.700;6.192;2023-12-07T14:21:08;11.98;;;7.43;;
60716;SDS011;46566;52.700;6.192;2023-12-07T14:23:34;47.65;;;17.92;;
60716;SDS011;46566;52.700;6.192;2023-12-07T14:28:46;23.25;;;9.07;;
60716;SDS011;46566;52.700;6.192;2023-12-07T14:31:12;26.38;;;11.07;;
60716;SDS011;46566;52.700;6.192;2023-12-07T14:33:43;13.37;;;7.33;;
60716;SDS011;46566;52.700;6.192;2023-12-07T14:36:28;27.70;;;11.00;;
60716;SDS011;46566;52.700;6.192;2023-12-07T14:38:55;30.98;;;12.65;;
60716;SDS011;46566;52.700;6.192;2023-12-07T14:41:21;17.73;;;8.88;;
60716;SDS011;46566;52.700;6.192;2023-12-07T14:43:48;25.55;;;8.70;;
60716;SDS011;46566;52.700;6.192;2023-12-07T14:49:06;30.95;;;11.43;;
60716;SDS011;46566;52.700;6.192;2023-12-07T14:51:32;15.00;;;6.47;;
60716;SDS011;46566;52.700;6.192;2023-12-07T14:53:58;24.63;;;9.00;;
60716;SDS011;46566;52.700;6.192;2023-12-07T14:59:17;18.70;;;9.23;;
60716;SDS011;46566;52.700;6.192;2023-12-07T15:01:45;23.98;;;10.45;;
60716;SDS011;46566;52.700;6.192;2023-12-07T15:04:12;41.70;;;14.98;;
60716;SDS011;46566;52.700;6.192;2023-12-07T15:09:30;57.10;;;19.58;;
60716;SDS011;46566;52.700;6.192;2023-12-07T15:11:56;25.80;;;9.63;;
60716;SDS011;46566;52.700;6.192;2023-12-07T15:17:14;11.82;;;4.32;;
60716;SDS011;46566;52.700;6.192;2023-12-07T15:19:42;32.67;;;11.80;;
60716;SDS011;46566;52.700;6.192;2023-12-07T15:22:08;24.00;;;9.73;;
60716;SDS011;46566;52.700;6.192;2023-12-07T15:24:35;15.15;;;8.30;;
60716;SDS011;46566;52.700;6.192;2023-12-07T15:27:01;26.55;;;12.25;;
60716;SDS011;46566;52.700;6.192;2023-12-07T15:29:28;32.45;;;14.07;;
60716;SDS011;46566;52.700;6.192;2023-12-07T15:31:55;27.27;;;10.48;;
60716;SDS011;46566;52.700;6.192;2023-12-07T15:34:21;10.98;;;6.40;;
60716;SDS011;46566;52.700;6.192;2023-12-07T15:36:47;11.02;;;4.22;;
60716;SDS011;46566;52.700;6.192;2023-12-07T15:39:13;30.95;;;15.32;;
60716;SDS011;46566;52.700;6.192;2023-12-07T15:41:40;30.58;;;10.35;;
60716;SDS011;46566;52.700;6.192;2023-12-07T15:44:08;21.48;;;11.75;;
60716;SDS011;46566;52.700;6.192;2023-12-07T15:46:34;23.58;;;9.65;;
60716;SDS011;46566;52.700;6.192;2023-12-07T15:49:01;2.97;;;2.70;;
60716;SDS011;46566;52.700;6.192;2023-12-07T15:51:27;46.45;;;14.82;;
60716;SDS011;46566;52.700;6.192;2023-12-07T15:53:53;42.17;;;16.15;;
60716;SDS011;46566;52.700;6.192;2023-12-07T15:56:20;18.67;;;7.57;;
60716;SDS011;46566;52.700;6.192;2023-12-07T15:58:46;3.28;;;2.83;;